Deneb Leader — 3EKQ — position and weather

sailwx.info

Track history (hours):
 
Tides and Currents Weather Stations Pressure Air Temp Water Temp Dewpoint Dewpoint Depression Visibility Wind Speed Wind Dir Waves Ship Positions

Deneb Leader

Last reported at 2017-Sep-13 09:47 UTC. Time now 2017-Sep-20 21:56 UTC.
Position N 34°30' W 122°21'.

Length 199 m; draft 8 m.

Type: Cargo ship. MMSI: 356688000.

Date/timePositionNaut miles runAvg speedWind from/ knotsBaromVisibWave heightAir tempDewpointWater temp
2017-Sep-13 09:47N 34°30' W 122°21'517.3
2017-Sep-13 09:30N 34°30' W 122°15'917.0
2017-Sep-13 08:59N 34°30' W 122°04'817.5
2017-Sep-13 08:31N 34°30' W 121°54'917.4
2017-Sep-13 08:00N 34°30' W 121°43'917.5
2017-Sep-13 07:31N 34°30' W 121°33'917.3
2017-Sep-13 07:00N 34°30' W 121°22'917.2
2017-Sep-13 06:30N 34°30' W 121°12'917.0
2017-Sep-13 06:00N 34°28' W 121°02'917.2
2017-Sep-13 05:30N 34°26' W 120°52'816.9
2017-Sep-13 05:00N 34°24' W 120°42'816.9
2017-Sep-13 04:31N 34°22' W 120°32'917.0
2017-Sep-13 04:00N 34°19' W 120°22'817.1
2017-Sep-13 03:30N 34°17' W 120°12'816.8
2017-Sep-13 03:00N 34°15' W 120°02'816.6
2017-Sep-13 02:31N 34°13' W 119°52'916.7
2017-Sep-13 02:00N 34°10' W 119°43'816.9
2017-Sep-13 01:31N 34°08' W 119°33'816.7
2017-Sep-13 01:01N 34°06' W 119°23'714.4
2017-Sep-13 00:31N 34°07' W 119°15'3 6.1
2017-Sep-13 00:01N 34°09' W 119°12'0 0.0
2017-Sep-12 23:28N 34°09' W 119°12'0 0.0
2017-Sep-12 22:55N 34°09' W 119°12'0 0.0
2017-Sep-12 22:19N 34°09' W 119°12'0 0.0
2017-Sep-12 21:59N 34°09' W 119°12'0 0.0
2017-Sep-12 21:28N 34°09' W 119°12'0 0.0
2017-Sep-12 20:55N 34°09' W 119°12'0 0.0
2017-Sep-12 20:28N 34°09' W 119°12'0 0.0
2017-Sep-12 19:43N 34°09' W 119°12'0 0.0
2017-Sep-12 19:07N 34°09' W 119°12'0 0.0
2017-Sep-12 18:49N 34°09' W 119°12'0 0.0
2017-Sep-12 18:28N 34°09' W 119°12'0 0.0
2017-Sep-12 17:55N 34°09' W 119°12'0 0.0
2017-Sep-12 17:07N 34°09' W 119°12'0 0.0
2017-Sep-12 16:49N 34°09' W 119°12'0 0.0
2017-Sep-12 16:28N 34°09' W 119°12'0 0.0
2017-Sep-12 15:58N 34°09' W 119°12'0 0.0
2017-Sep-12 15:28N 34°09' W 119°12'0 0.0
2017-Sep-12 14:58N 34°09' W 119°12'0 0.0
2017-Sep-12 14:28N 34°09' W 119°12'0 0.0
2017-Sep-12 13:58N 34°09' W 119°12'0 0.0
2017-Sep-12 13:28N 34°09' W 119°12'0 0.0
2017-Sep-12 12:52N 34°09' W 119°12'0 0.3
2017-Sep-12 12:30N 34°09' W 119°12'3 5.2
2017-Sep-12 12:01N 34°07' W 119°14'3 6.2
2017-Sep-12 11:30N 34°04' W 119°17'3 6.7
2017-Sep-12 11:00N 34°03' W 119°21'4 8.2
2017-Sep-12 10:31N 34°05' W 119°25'5 9.9
2017-Sep-12 10:00N 34°06' W 119°31'5 9.5
2017-Sep-12 09:30N 34°07' W 119°37'611.2
2017-Sep-12 09:01N 34°08' W 119°43'611.7
2017-Sep-12 08:30N 34°10' W 119°50'611.9
2017-Sep-12 08:00N 34°12' W 119°57'611.7
2017-Sep-12 07:30N 34°13' W 120°04'611.4
2017-Sep-12 07:01N 34°15' W 120°10'610.9
2017-Sep-12 06:30N 34°16' W 120°17'611.0
2017-Sep-12 06:00N 34°18' W 120°23'510.7
2017-Sep-12 05:30N 34°19' W 120°29'510.7
2017-Sep-12 05:00N 34°20' W 120°36'511.0
2017-Sep-12 04:30N 34°22' W 120°42'611.3
2017-Sep-12 03:58N 34°24' W 120°49'611.7
2017-Sep-12 03:27N 34°25' W 120°56'511.1
2017-Sep-12 03:00N 34°27' W 121°02'611.8
2017-Sep-12 02:29N 34°33' W 121°05'1 1.4
2017-Sep-12 02:01N 34°33' W 121°06'0 0.7
2017-Sep-12 01:30N 34°34' W 121°06'1 1.0
2017-Sep-12 01:01N 34°34' W 121°06'0 0.7
2017-Sep-12 00:30N 34°34' W 121°07'0 0.8
2017-Sep-12 00:00N 34°34' W 121°07'0 0.6
2017-Sep-11 23:30N 34°35' W 121°07'0 0.8
2017-Sep-11 23:01N 34°35' W 121°08'0 0.8
2017-Sep-11 22:30N 34°35' W 121°08'2 4.5
2017-Sep-11 21:57N 34°37' W 121°09'3 5.6
2017-Sep-11 21:31N 34°40' W 121°10'3 5.4
2017-Sep-11 21:00N 34°42' W 121°12'3 6.3
2017-Sep-11 20:30N 34°45' W 121°14'4 8.8
2017-Sep-11 20:01N 34°49' W 121°16'510.8
2017-Sep-11 19:31N 34°53' W 121°20'611.2
2017-Sep-11 19:01N 34°58' W 121°23'611.2
2017-Sep-11 18:31N 35°03' W 121°27'611.1
2017-Sep-11 18:00N 35°08' W 121°30'611.1
2017-Sep-11 17:30N 35°13' W 121°33'611.2
2017-Sep-11 17:00N 35°17' W 121°37'611.3
2017-Sep-11 16:30N 35°22' W 121°40'611.5
2017-Sep-11 16:00N 35°27' W 121°44'4512.1
2017-Sep-11 12:15N 36°06' W 122°12'311.5
2017-Sep-11 12:00N 36°09' W 122°13'611.9
2017-Sep-11 11:30N 36°14' W 122°17'611.5
2017-Sep-11 11:00N 36°19' W 122°20'510.8
2017-Sep-11 10:30N 36°24' W 122°22'510.5
2017-Sep-11 10:01N 36°29' W 122°24'510.7
2017-Sep-11 09:30N 36°34' W 122°27'510.4
2017-Sep-11 09:00N 36°39' W 122°29'611.2
2017-Sep-11 08:30N 36°45' W 122°31'611.8
2017-Sep-11 08:00N 36°50' W 122°34'611.3
2017-Sep-11 07:31N 36°55' W 122°37'611.2
2017-Sep-11 07:01N 37°00' W 122°39'611.8
2017-Sep-11 06:30N 37°06' W 122°42'611.8
2017-Sep-11 06:00N 37°12' W 122°44'612.1
2017-Sep-11 05:31N 37°18' W 122°44'612.3
2017-Sep-11 05:00N 37°24' W 122°44'612.4
2017-Sep-11 04:30N 37°30' W 122°44'612.3
2017-Sep-11 04:00N 37°36' W 122°44'611.8
2017-Sep-11 03:31N 37°42' W 122°42'5 9.4
2017-Sep-11 03:01N 37°46' W 122°39'713.7
2017-Sep-11 02:31N 37°49' W 122°31'611.2
2017-Sep-11 02:00N 37°52' W 122°25'3 5.6
2017-Sep-11 01:30N 37°55' W 122°24'2 3.8
2017-Sep-11 01:00N 37°54' W 122°22'0 0.0
2017-Sep-11 00:30N 37°54' W 122°22'0 0.0
2017-Sep-11 00:00N 37°54' W 122°22'0 0.0
2017-Sep-10 23:30N 37°54' W 122°22'0 0.0
2017-Sep-10 23:00N 37°54' W 122°22'0 0.0
2017-Sep-10 22:30N 37°54' W 122°22'0 0.0
2017-Sep-10 22:00N 37°54' W 122°22'0 0.0
2017-Sep-10 21:30N 37°54' W 122°22'0 0.0
2017-Sep-10 21:00N 37°54' W 122°22'0 0.0
2017-Sep-10 20:30N 37°54' W 122°22'0 0.0
2017-Sep-10 20:00N 37°54' W 122°22'0 0.0
2017-Sep-10 19:30N 37°54' W 122°22'0 0.0
2017-Sep-10 19:00N 37°54' W 122°22'0 0.0
2017-Sep-10 18:30N 37°54' W 122°22'0 0.0
2017-Sep-10 18:00N 37°54' W 122°22'0 0.0
2017-Sep-10 17:30N 37°54' W 122°22'0 0.0
2017-Sep-10 17:00N 37°54' W 122°22'0 0.0
2017-Sep-10 16:30N 37°54' W 122°22'0 0.0
2017-Sep-10 16:00N 37°54' W 122°22'0 0.0
2017-Sep-10 15:30N 37°54' W 122°22'0 0.0
2017-Sep-10 15:00N 37°54' W 122°22'0 0.0
2017-Sep-10 14:00N 37°54' W 122°22'0 0.0
2017-Sep-10 13:30N 37°54' W 122°22'0 0.0
2017-Sep-10 13:00N 37°54' W 122°22'0 0.0
2017-Sep-10 12:30N 37°54' W 122°22'0 0.0
2017-Sep-10 12:00N 37°54' W 122°22'0 0.1
2017-Sep-10 11:30N 37°54' W 122°22'0 0.1
2017-Sep-10 11:00N 37°54' W 122°22'0 0.0
2017-Sep-10 10:30N 37°54' W 122°22'0 0.0
2017-Sep-10 10:00N 37°54' W 122°22'0 0.0
2017-Sep-10 09:30N 37°54' W 122°22'0 0.0
2017-Sep-10 09:00N 37°54' W 122°22'0 0.0
2017-Sep-10 08:30N 37°54' W 122°22'0 0.0
2017-Sep-10 08:00N 37°54' W 122°22'0 0.1
2017-Sep-10 07:30N 37°54' W 122°22'0 0.1
2017-Sep-10 07:00N 37°54' W 122°22'0 0.0
2017-Sep-10 06:30N 37°54' W 122°22'0 0.0
2017-Sep-10 06:00N 37°54' W 122°22'0 0.0
2017-Sep-10 05:30N 37°54' W 122°22'0 0.0
2017-Sep-10 04:57N 37°54' W 122°22'0 0.0
2017-Sep-10 04:30N 37°54' W 122°22'0 0.0
2017-Sep-10 04:00N 37°54' W 122°22'0 0.0
2017-Sep-10 03:30N 37°54' W 122°22'0 0.0
2017-Sep-10 03:01N 37°54' W 122°22'0 0.0
2017-Sep-10 02:31N 37°54' W 122°22'0 0.9
2017-Sep-10 02:00N 37°54' W 122°22'2 4.7
2017-Sep-10 01:30N 37°54' W 122°25'4 8.2
2017-Sep-10 01:00N 37°51' W 122°27'611.7
2017-Sep-10 00:30N 37°47' W 122°33'612.3
2017-Sep-10 00:00N 37°46' W 122°40'5 9.5
2017-Sep-09 23:30N 37°47' W 122°46'5 9.9
2017-Sep-09 23:00N 37°49' W 122°52'611.6
2017-Sep-09 22:30N 37°52' W 122°58'611.6
2017-Sep-09 22:00N 37°55' W 123°05'611.8
2017-Sep-09 21:30N 37°58' W 123°11'612.0
2017-Sep-09 21:00N 38°02' W 123°16'612.2
2017-Sep-09 20:30N 38°07' W 123°21'612.8
2017-Sep-09 20:00N 38°12' W 123°26'612.9
2017-Sep-09 19:30N 38°17' W 123°31'612.6
2017-Sep-09 19:00N 38°22' W 123°36'612.6
2017-Sep-09 18:30N 38°27' W 123°41'612.7
2017-Sep-09 18:00N 38°32' W 123°46'713.2
2017-Sep-09 17:30N 38°37' W 123°52'713.3
2017-Sep-09 16:58N 38°42' W 123°58'8 7.9
2017-Sep-09 15:55N 38°49' W 124°03'4 9.3
2017-Sep-09 15:29N 38°53' W 124°06'41314.4
2017-Sep-08 10:43N 45°45' W 124°34'514.7
2017-Sep-08 10:24N 45°49' W 124°30'714.3
2017-Sep-08 09:56N 45°54' W 124°25'614.5
2017-Sep-08 09:30N 45°60' W 124°21'714.8
2017-Sep-08 09:00N 46°06' W 124°15'713.1
2017-Sep-08 08:30N 46°11' W 124°10'510.7
2017-Sep-08 08:00N 46°15' W 124°05'611.5
2017-Sep-08 07:30N 46°13' W 123°57'510.1
2017-Sep-08 07:00N 46°12' W 123°50'510.1
2017-Sep-08 06:31N 46°14' W 123°43'714.6
2017-Sep-08 06:00N 46°15' W 123°33'611.9
2017-Sep-08 05:29N 46°12' W 123°26'2712.5
2017-Sep-08 03:19N 45°60' W 122°51'713.6
2017-Sep-08 02:49N 45°53' W 122°48'513.5
2017-Sep-08 02:26N 45°48' W 122°47'613.8
2017-Sep-08 01:58N 45°42' W 122°46'4 8.6
2017-Sep-08 01:30N 45°38' W 122°43'0 0.0
2017-Sep-08 00:55N 45°38' W 122°43'0 0.0
2017-Sep-07 23:01N 45°38' W 122°43'0 0.0
2017-Sep-07 22:55N 45°38' W 122°43'0 0.1
2017-Sep-07 22:19N 45°38' W 122°43'0 0.0
2017-Sep-07 21:55N 45°38' W 122°43'0 0.1
2017-Sep-07 21:25N 45°38' W 122°43'0 0.1
2017-Sep-07 20:55N 45°38' W 122°43'0 0.0
2017-Sep-07 20:19N 45°38' W 122°43'0 0.1
2017-Sep-07 19:55N 45°38' W 122°43'0 0.1
2017-Sep-07 19:07N 45°38' W 122°43'0 0.0
2017-Sep-07 18:19N 45°38' W 122°43'0 0.0
2017-Sep-07 17:55N 45°38' W 122°43'0 0.0
2017-Sep-07 17:19N 45°38' W 122°43'0 0.0
2017-Sep-07 16:49N 45°38' W 122°43'0 0.0
2017-Sep-07 16:13N 45°38' W 122°43'0 0.0
2017-Sep-07 15:49N 45°38' W 122°43'0 0.0
2017-Sep-07 15:25N 45°38' W 122°43'0 0.0
2017-Sep-07 14:55N 45°38' W 122°43'0 0.0
2017-Sep-07 14:25N 45°38' W 122°43'0 0.0
2017-Sep-07 13:55N 45°38' W 122°43'0 0.0
2017-Sep-07 02:42N 45°38' W 122°43'0 0.1
2017-Sep-07 02:20N 45°38' W 122°43'0 0.3
2017-Sep-07 02:00N 45°38' W 122°43'3 6.8
2017-Sep-07 01:30N 45°41' W 122°47'714.0
2017-Sep-07 01:01N 45°48' W 122°47'714.1
2017-Sep-07 00:30N 45°55' W 122°49'612.6
2017-Sep-07 00:00N 46°01' W 122°51'510.7
2017-Sep-06 23:31N 46°05' W 122°55'612.1
2017-Sep-06 23:00N 46°09' W 123°02'714.2
2017-Sep-06 22:30N 46°11' W 123°12'713.5
2017-Sep-06 22:00N 46°09' W 123°22'5 9.8
2017-Sep-06 21:30N 46°13' W 123°25'612.2
2017-Sep-06 21:00N 46°15' W 123°33'815.2
2017-Sep-06 20:30N 46°14' W 123°44'612.2
2017-Sep-06 20:00N 46°12' W 123°52'714.6
2017-Sep-06 19:30N 46°15' W 124°01'713.3
2017-Sep-06 19:00N 46°12' W 124°10'611.4
2017-Sep-06 18:30N 46°16' W 124°16'611.6
2017-Sep-06 18:00N 46°21' W 124°21'713.8
2017-Sep-06 17:31N 46°26' W 124°27'10014.6
2017-Sep-06 10:41N 47°60' W 125°16'316.8
2017-Sep-06 10:30N 48°03' W 125°15'816.7
2017-Sep-06 10:00N 48°11' W 125°10'916.8
2017-Sep-06 09:30N 48°19' W 125°09'815.9
2017-Sep-06 09:00N 48°26' W 125°05'714.3
2017-Sep-06 08:30N 48°31' W 124°56'815.3
2017-Sep-06 08:00N 48°30' W 124°44'816.7
2017-Sep-06 07:30N 48°27' W 124°33'816.7
2017-Sep-06 07:00N 48°24' W 124°21'917.7
2017-Sep-06 06:30N 48°21' W 124°09'917.7
2017-Sep-06 06:00N 48°18' W 123°56'918.3
2017-Sep-06 05:30N 48°16' W 123°43'917.8
2017-Sep-06 05:00N 48°16' W 123°29'815.5
2017-Sep-06 04:31N 48°23' W 123°25'611.6
2017-Sep-06 04:00N 48°24' W 123°16'510.6
2017-Sep-06 03:30N 48°28' W 123°13'5 9.9
2017-Sep-06 03:00N 48°33' W 123°13'510.3
2017-Sep-06 02:31N 48°38' W 123°15'612.6
2017-Sep-06 02:01N 48°44' W 123°10'815.9
2017-Sep-06 01:31N 48°49' W 123°01'918.3
2017-Sep-06 01:01N 48°56' W 123°11'917.2
2017-Sep-06 00:31N 49°02' W 123°20'510.5
2017-Sep-06 00:00N 49°07' W 123°17'4 8.4
2017-Sep-05 23:30N 49°07' W 123°11'4 7.9
2017-Sep-05 23:00N 49°07' W 123°05'4 8.0
2017-Sep-05 22:30N 49°09' W 122°60'3 6.7
2017-Sep-05 22:00N 49°11' W 122°55'0 0.2
2017-Sep-05 21:30N 49°11' W 122°55'0 0.0
2017-Sep-05 21:00N 49°11' W 122°55'0 0.0
2017-Sep-05 20:30N 49°11' W 122°55'0 0.0
2017-Sep-05 19:57N 49°11' W 122°55'0 0.0
2017-Sep-05 19:27N 49°11' W 122°55'0 0.0
2017-Sep-05 19:00N 49°11' W 122°55'0 0.0
2017-Sep-05 18:30N 49°11' W 122°55'0 0.0
2017-Sep-05 18:00N 49°11' W 122°55'0 0.0
2017-Sep-05 17:30N 49°11' W 122°55'0 0.0
2017-Sep-05 17:00N 49°11' W 122°55'0 0.0
2017-Sep-05 16:24N 49°11' W 122°55'0 0.0
2017-Sep-05 15:57N 49°11' W 122°55'0 0.0
2017-Sep-05 15:30N 49°11' W 122°55'0 0.0
2017-Sep-05 15:00N 49°11' W 122°55'0 0.0
2017-Sep-05 14:30N 49°11' W 122°55'0 0.0
2017-Sep-05 14:00N 49°11' W 122°55'0 0.0
2017-Sep-05 13:30N 49°11' W 122°55'0 0.0
2017-Sep-05 13:00N 49°11' W 122°55'0 0.1
2017-Sep-05 12:30N 49°11' W 122°55'1 1.4
2017-Sep-05 12:00N 49°10' W 122°55'4 8.4
2017-Sep-05 11:30N 49°09' W 123°01'611.6
2017-Sep-05 11:00N 49°07' W 123°09'611.1
2017-Sep-05 10:30N 49°06' W 123°18'4 7.8
2017-Sep-05 10:00N 49°03' W 123°19'611.7
2017-Sep-05 09:30N 48°59' W 123°12'917.4
2017-Sep-05 09:00N 48°53' W 123°03'714.6
2017-Sep-05 08:30N 48°45' W 123°04'917.2
2017-Sep-05 08:00N 48°41' W 123°15'714.5
2017-Sep-05 07:30N 48°34' W 123°12'510.3
2017-Sep-05 07:00N 48°29' W 123°10'5 9.7
2017-Sep-05 06:30N 48°24' W 123°12'713.4
2017-Sep-05 06:00N 48°22' W 123°22'510.0
2017-Sep-05 05:30N 48°18' W 123°26'510.0
2017-Sep-05 05:00N 48°13' W 123°30'714.1
2017-Sep-05 04:30N 48°14' W 123°41'814.6
2017-Sep-05 03:59N 48°14' W 123°52'714.4
2017-Sep-05 03:30N 48°15' W 124°02'815.1
2017-Sep-05 03:00N 48°19' W 124°12'815.2
2017-Sep-05 02:30N 48°22' W 124°23'815.3
2017-Sep-05 02:01N 48°25' W 124°33'714.8
2017-Sep-05 01:31N 48°28' W 124°43'714.2
2017-Sep-05 01:01N 48°28' W 124°54'714.6
2017-Sep-05 00:31N 48°28' W 125°05'816.0
2017-Sep-05 00:01N 48°29' W 125°17'815.8
2017-Sep-04 23:31N 48°29' W 125°29'815.3
2017-Sep-04 23:00N 48°30' W 125°40'815.2
2017-Sep-04 22:31N 48°31' W 125°52'815.8
2017-Sep-04 22:01N 48°32' W 126°03'815.9
2017-Sep-04 21:31N 48°32' W 126°15'815.8
2017-Sep-04 21:01N 48°33' W 126°27'816.1
2017-Sep-04 20:31N 48°34' W 126°39'816.8
2017-Sep-04 20:00N 48°34' W 126°52'816.5
2017-Sep-04 19:30N 48°35' W 127°05'816.6
2017-Sep-04 19:00N 48°36' W 127°17'816.2
2017-Sep-04 18:30N 48°38' W 127°29'816.3
2017-Sep-04 18:01N 48°39' W 127°41'816.0
2017-Sep-04 17:31N 48°40' W 127°53'815.5
2017-Sep-04 17:01N 48°41' W 128°05'611.1
2017-Sep-04 16:30N 48°41' W 128°13'2 3.5
2017-Sep-04 16:00N 48°40' W 128°15'510.3
2017-Sep-04 15:30N 48°40' W 128°23'714.7
2017-Sep-04 15:01N 48°41' W 128°34'816.2
2017-Sep-04 14:30N 48°41' W 128°46'816.3
2017-Sep-04 14:00N 48°42' W 128°59'816.3
2017-Sep-04 13:30N 48°42' W 129°11'816.1
2017-Sep-04 13:01N 48°43' W 129°23'815.7
2017-Sep-04 12:30N 48°44' W 129°35'815.6
2017-Sep-04 12:00N 48°44' W 129°47'815.7
2017-Sep-04 11:30N 48°45' W 129°59'815.7
2017-Sep-04 11:00N 48°46' W 130°11'815.8
2017-Sep-04 10:30N 48°47' W 130°22'2315.9
2017-Sep-04 09:03N 48°49' W 130°57'116.0
2017-Sep-04 08:59N 48°49' W 130°59'1115.8
2017-Sep-04 08:19N 48°50' W 131°15'1016.0
2017-Sep-04 07:43N 48°50' W 131°29'  
Track history (hours):
 
Tides and Currents Weather Stations Pressure Air Temp Water Temp Dewpoint Dewpoint Depression Visibility Wind Speed Wind Dir Waves Ship Positions

Deneb Leader

Last reported at 2017-Sep-13 09:47 UTC. Time now 2017-Sep-20 21:56 UTC.
Position N 34°30' W 122°21'.

Length 199 m; draft 8 m.

Type: Cargo ship. MMSI: 356688000.

Date/timePositionNaut miles runAvg speedWind from/ knotsBaromVisibWave heightAir tempDewpointWater temp
2017-Sep-13 09:47N 34°30' W 122°21'517.3
2017-Sep-13 09:30N 34°30' W 122°15'917.0
2017-Sep-13 08:59N 34°30' W 122°04'817.5
2017-Sep-13 08:31N 34°30' W 121°54'917.4
2017-Sep-13 08:00N 34°30' W 121°43'917.5
2017-Sep-13 07:31N 34°30' W 121°33'917.3
2017-Sep-13 07:00N 34°30' W 121°22'917.2
2017-Sep-13 06:30N 34°30' W 121°12'917.0
2017-Sep-13 06:00N 34°28' W 121°02'917.2
2017-Sep-13 05:30N 34°26' W 120°52'816.9
2017-Sep-13 05:00N 34°24' W 120°42'816.9
2017-Sep-13 04:31N 34°22' W 120°32'917.0
2017-Sep-13 04:00N 34°19' W 120°22'817.1
2017-Sep-13 03:30N 34°17' W 120°12'816.8
2017-Sep-13 03:00N 34°15' W 120°02'816.6
2017-Sep-13 02:31N 34°13' W 119°52'916.7
2017-Sep-13 02:00N 34°10' W 119°43'816.9
2017-Sep-13 01:31N 34°08' W 119°33'816.7
2017-Sep-13 01:01N 34°06' W 119°23'714.4
2017-Sep-13 00:31N 34°07' W 119°15'3 6.1
2017-Sep-13 00:01N 34°09' W 119°12'0 0.0
2017-Sep-12 23:28N 34°09' W 119°12'0 0.0
2017-Sep-12 22:55N 34°09' W 119°12'0 0.0
2017-Sep-12 22:19N 34°09' W 119°12'0 0.0
2017-Sep-12 21:59N 34°09' W 119°12'0 0.0
2017-Sep-12 21:28N 34°09' W 119°12'0 0.0
2017-Sep-12 20:55N 34°09' W 119°12'0 0.0
2017-Sep-12 20:28N 34°09' W 119°12'0 0.0
2017-Sep-12 19:43N 34°09' W 119°12'0 0.0
2017-Sep-12 19:07N 34°09' W 119°12'0 0.0
2017-Sep-12 18:49N 34°09' W 119°12'0 0.0
2017-Sep-12 18:28N 34°09' W 119°12'0 0.0
2017-Sep-12 17:55N 34°09' W 119°12'0 0.0
2017-Sep-12 17:07N 34°09' W 119°12'0 0.0
2017-Sep-12 16:49N 34°09' W 119°12'0 0.0
2017-Sep-12 16:28N 34°09' W 119°12'0 0.0
2017-Sep-12 15:58N 34°09' W 119°12'0 0.0
2017-Sep-12 15:28N 34°09' W 119°12'0 0.0
2017-Sep-12 14:58N 34°09' W 119°12'0 0.0
2017-Sep-12 14:28N 34°09' W 119°12'0 0.0
2017-Sep-12 13:58N 34°09' W 119°12'0 0.0
2017-Sep-12 13:28N 34°09' W 119°12'0 0.0
2017-Sep-12 12:52N 34°09' W 119°12'0 0.3
2017-Sep-12 12:30N 34°09' W 119°12'3 5.2
2017-Sep-12 12:01N 34°07' W 119°14'3 6.2
2017-Sep-12 11:30N 34°04' W 119°17'3 6.7
2017-Sep-12 11:00N 34°03' W 119°21'4 8.2
2017-Sep-12 10:31N 34°05' W 119°25'5 9.9
2017-Sep-12 10:00N 34°06' W 119°31'5 9.5
2017-Sep-12 09:30N 34°07' W 119°37'611.2
2017-Sep-12 09:01N 34°08' W 119°43'611.7
2017-Sep-12 08:30N 34°10' W 119°50'611.9
2017-Sep-12 08:00N 34°12' W 119°57'611.7
2017-Sep-12 07:30N 34°13' W 120°04'611.4
2017-Sep-12 07:01N 34°15' W 120°10'610.9
2017-Sep-12 06:30N 34°16' W 120°17'611.0
2017-Sep-12 06:00N 34°18' W 120°23'510.7
2017-Sep-12 05:30N 34°19' W 120°29'510.7
2017-Sep-12 05:00N 34°20' W 120°36'511.0
2017-Sep-12 04:30N 34°22' W 120°42'611.3
2017-Sep-12 03:58N 34°24' W 120°49'611.7
2017-Sep-12 03:27N 34°25' W 120°56'511.1
2017-Sep-12 03:00N 34°27' W 121°02'611.8
2017-Sep-12 02:29N 34°33' W 121°05'1 1.4
2017-Sep-12 02:01N 34°33' W 121°06'0 0.7
2017-Sep-12 01:30N 34°34' W 121°06'1 1.0
2017-Sep-12 01:01N 34°34' W 121°06'0 0.7
2017-Sep-12 00:30N 34°34' W 121°07'0 0.8
2017-Sep-12 00:00N 34°34' W 121°07'0 0.6
2017-Sep-11 23:30N 34°35' W 121°07'0 0.8
2017-Sep-11 23:01N 34°35' W 121°08'0 0.8
2017-Sep-11 22:30N 34°35' W 121°08'2 4.5
2017-Sep-11 21:57N 34°37' W 121°09'3 5.6
2017-Sep-11 21:31N 34°40' W 121°10'3 5.4
2017-Sep-11 21:00N 34°42' W 121°12'3 6.3
2017-Sep-11 20:30N 34°45' W 121°14'4 8.8
2017-Sep-11 20:01N 34°49' W 121°16'510.8
2017-Sep-11 19:31N 34°53' W 121°20'611.2
2017-Sep-11 19:01N 34°58' W 121°23'611.2
2017-Sep-11 18:31N 35°03' W 121°27'611.1
2017-Sep-11 18:00N 35°08' W 121°30'611.1
2017-Sep-11 17:30N 35°13' W 121°33'611.2
2017-Sep-11 17:00N 35°17' W 121°37'611.3
2017-Sep-11 16:30N 35°22' W 121°40'611.5
2017-Sep-11 16:00N 35°27' W 121°44'4512.1
2017-Sep-11 12:15N 36°06' W 122°12'311.5
2017-Sep-11 12:00N 36°09' W 122°13'611.9
2017-Sep-11 11:30N 36°14' W 122°17'611.5
2017-Sep-11 11:00N 36°19' W 122°20'510.8
2017-Sep-11 10:30N 36°24' W 122°22'510.5
2017-Sep-11 10:01N 36°29' W 122°24'510.7
2017-Sep-11 09:30N 36°34' W 122°27'510.4
2017-Sep-11 09:00N 36°39' W 122°29'611.2
2017-Sep-11 08:30N 36°45' W 122°31'611.8
2017-Sep-11 08:00N 36°50' W 122°34'611.3
2017-Sep-11 07:31N 36°55' W 122°37'611.2
2017-Sep-11 07:01N 37°00' W 122°39'611.8
2017-Sep-11 06:30N 37°06' W 122°42'611.8
2017-Sep-11 06:00N 37°12' W 122°44'612.1
2017-Sep-11 05:31N 37°18' W 122°44'612.3
2017-Sep-11 05:00N 37°24' W 122°44'612.4
2017-Sep-11 04:30N 37°30' W 122°44'612.3
2017-Sep-11 04:00N 37°36' W 122°44'611.8
2017-Sep-11 03:31N 37°42' W 122°42'5 9.4
2017-Sep-11 03:01N 37°46' W 122°39'713.7
2017-Sep-11 02:31N 37°49' W 122°31'611.2
2017-Sep-11 02:00N 37°52' W 122°25'3 5.6
2017-Sep-11 01:30N 37°55' W 122°24'2 3.8
2017-Sep-11 01:00N 37°54' W 122°22'0 0.0
2017-Sep-11 00:30N 37°54' W 122°22'0 0.0
2017-Sep-11 00:00N 37°54' W 122°22'0 0.0
2017-Sep-10 23:30N 37°54' W 122°22'0 0.0
2017-Sep-10 23:00N 37°54' W 122°22'0 0.0
2017-Sep-10 22:30N 37°54' W 122°22'0 0.0
2017-Sep-10 22:00N 37°54' W 122°22'0 0.0
2017-Sep-10 21:30N 37°54' W 122°22'0 0.0
2017-Sep-10 21:00N 37°54' W 122°22'0 0.0
2017-Sep-10 20:30N 37°54' W 122°22'0 0.0
2017-Sep-10 20:00N 37°54' W 122°22'0 0.0
2017-Sep-10 19:30N 37°54' W 122°22'0 0.0
2017-Sep-10 19:00N 37°54' W 122°22'0 0.0
2017-Sep-10 18:30N 37°54' W 122°22'0 0.0
2017-Sep-10 18:00N 37°54' W 122°22'0 0.0
2017-Sep-10 17:30N 37°54' W 122°22'0 0.0
2017-Sep-10 17:00N 37°54' W 122°22'0 0.0
2017-Sep-10 16:30N 37°54' W 122°22'0 0.0
2017-Sep-10 16:00N 37°54' W 122°22'0 0.0
2017-Sep-10 15:30N 37°54' W 122°22'0 0.0
2017-Sep-10 15:00N 37°54' W 122°22'0 0.0
2017-Sep-10 14:00N 37°54' W 122°22'0 0.0
2017-Sep-10 13:30N 37°54' W 122°22'0 0.0
2017-Sep-10 13:00N 37°54' W 122°22'0 0.0
2017-Sep-10 12:30N 37°54' W 122°22'0 0.0
2017-Sep-10 12:00N 37°54' W 122°22'0 0.1
2017-Sep-10 11:30N 37°54' W 122°22'0 0.1
2017-Sep-10 11:00N 37°54' W 122°22'0 0.0
2017-Sep-10 10:30N 37°54' W 122°22'0 0.0
2017-Sep-10 10:00N 37°54' W 122°22'0 0.0
2017-Sep-10 09:30N 37°54' W 122°22'0 0.0
2017-Sep-10 09:00N 37°54' W 122°22'0 0.0
2017-Sep-10 08:30N 37°54' W 122°22'0 0.0
2017-Sep-10 08:00N 37°54' W 122°22'0 0.1
2017-Sep-10 07:30N 37°54' W 122°22'0 0.1
2017-Sep-10 07:00N 37°54' W 122°22'0 0.0
2017-Sep-10 06:30N 37°54' W 122°22'0 0.0
2017-Sep-10 06:00N 37°54' W 122°22'0 0.0
2017-Sep-10 05:30N 37°54' W 122°22'0 0.0
2017-Sep-10 04:57N 37°54' W 122°22'0 0.0
2017-Sep-10 04:30N 37°54' W 122°22'0 0.0
2017-Sep-10 04:00N 37°54' W 122°22'0 0.0
2017-Sep-10 03:30N 37°54' W 122°22'0 0.0
2017-Sep-10 03:01N 37°54' W 122°22'0 0.0
2017-Sep-10 02:31N 37°54' W 122°22'0 0.9
2017-Sep-10 02:00N 37°54' W 122°22'2 4.7
2017-Sep-10 01:30N 37°54' W 122°25'4 8.2
2017-Sep-10 01:00N 37°51' W 122°27'611.7
2017-Sep-10 00:30N 37°47' W 122°33'612.3
2017-Sep-10 00:00N 37°46' W 122°40'5 9.5
2017-Sep-09 23:30N 37°47' W 122°46'5 9.9
2017-Sep-09 23:00N 37°49' W 122°52'611.6
2017-Sep-09 22:30N 37°52' W 122°58'611.6
2017-Sep-09 22:00N 37°55' W 123°05'611.8
2017-Sep-09 21:30N 37°58' W 123°11'612.0
2017-Sep-09 21:00N 38°02' W 123°16'612.2
2017-Sep-09 20:30N 38°07' W 123°21'612.8
2017-Sep-09 20:00N 38°12' W 123°26'612.9
2017-Sep-09 19:30N 38°17' W 123°31'612.6
2017-Sep-09 19:00N 38°22' W 123°36'612.6
2017-Sep-09 18:30N 38°27' W 123°41'612.7
2017-Sep-09 18:00N 38°32' W 123°46'713.2
2017-Sep-09 17:30N 38°37' W 123°52'713.3
2017-Sep-09 16:58N 38°42' W 123°58'8 7.9
2017-Sep-09 15:55N 38°49' W 124°03'4 9.3
2017-Sep-09 15:29N 38°53' W 124°06'41314.4
2017-Sep-08 10:43N 45°45' W 124°34'514.7
2017-Sep-08 10:24N 45°49' W 124°30'714.3
2017-Sep-08 09:56N 45°54' W 124°25'614.5
2017-Sep-08 09:30N 45°60' W 124°21'714.8
2017-Sep-08 09:00N 46°06' W 124°15'713.1
2017-Sep-08 08:30N 46°11' W 124°10'510.7
2017-Sep-08 08:00N 46°15' W 124°05'611.5
2017-Sep-08 07:30N 46°13' W 123°57'510.1
2017-Sep-08 07:00N 46°12' W 123°50'510.1
2017-Sep-08 06:31N 46°14' W 123°43'714.6
2017-Sep-08 06:00N 46°15' W 123°33'611.9
2017-Sep-08 05:29N 46°12' W 123°26'2712.5
2017-Sep-08 03:19N 45°60' W 122°51'713.6
2017-Sep-08 02:49N 45°53' W 122°48'513.5
2017-Sep-08 02:26N 45°48' W 122°47'613.8
2017-Sep-08 01:58N 45°42' W 122°46'4 8.6
2017-Sep-08 01:30N 45°38' W 122°43'0 0.0
2017-Sep-08 00:55N 45°38' W 122°43'0 0.0
2017-Sep-07 23:01N 45°38' W 122°43'0 0.0
2017-Sep-07 22:55N 45°38' W 122°43'0 0.1
2017-Sep-07 22:19N 45°38' W 122°43'0 0.0
2017-Sep-07 21:55N 45°38' W 122°43'0 0.1
2017-Sep-07 21:25N 45°38' W 122°43'0 0.1
2017-Sep-07 20:55N 45°38' W 122°43'0 0.0
2017-Sep-07 20:19N 45°38' W 122°43'0 0.1
2017-Sep-07 19:55N 45°38' W 122°43'0 0.1
2017-Sep-07 19:07N 45°38' W 122°43'0 0.0
2017-Sep-07 18:19N 45°38' W 122°43'0 0.0
2017-Sep-07 17:55N 45°38' W 122°43'0 0.0
2017-Sep-07 17:19N 45°38' W 122°43'0 0.0
2017-Sep-07 16:49N 45°38' W 122°43'0 0.0
2017-Sep-07 16:13N 45°38' W 122°43'0 0.0
2017-Sep-07 15:49N 45°38' W 122°43'0 0.0
2017-Sep-07 15:25N 45°38' W 122°43'0 0.0
2017-Sep-07 14:55N 45°38' W 122°43'0 0.0
2017-Sep-07 14:25N 45°38' W 122°43'0 0.0
2017-Sep-07 13:55N 45°38' W 122°43'0 0.0
2017-Sep-07 02:42N 45°38' W 122°43'0 0.1
2017-Sep-07 02:20N 45°38' W 122°43'0 0.3
2017-Sep-07 02:00N 45°38' W 122°43'3 6.8
2017-Sep-07 01:30N 45°41' W 122°47'714.0
2017-Sep-07 01:01N 45°48' W 122°47'714.1
2017-Sep-07 00:30N 45°55' W 122°49'612.6
2017-Sep-07 00:00N 46°01' W 122°51'510.7
2017-Sep-06 23:31N 46°05' W 122°55'612.1
2017-Sep-06 23:00N 46°09' W 123°02'714.2
2017-Sep-06 22:30N 46°11' W 123°12'713.5
2017-Sep-06 22:00N 46°09' W 123°22'5 9.8
2017-Sep-06 21:30N 46°13' W 123°25'612.2
2017-Sep-06 21:00N 46°15' W 123°33'815.2
2017-Sep-06 20:30N 46°14' W 123°44'612.2
2017-Sep-06 20:00N 46°12' W 123°52'714.6
2017-Sep-06 19:30N 46°15' W 124°01'713.3
2017-Sep-06 19:00N 46°12' W 124°10'611.4
2017-Sep-06 18:30N 46°16' W 124°16'611.6
2017-Sep-06 18:00N 46°21' W 124°21'713.8
2017-Sep-06 17:31N 46°26' W 124°27'10014.6
2017-Sep-06 10:41N 47°60' W 125°16'316.8
2017-Sep-06 10:30N 48°03' W 125°15'816.7
2017-Sep-06 10:00N 48°11' W 125°10'916.8
2017-Sep-06 09:30N 48°19' W 125°09'815.9
2017-Sep-06 09:00N 48°26' W 125°05'714.3
2017-Sep-06 08:30N 48°31' W 124°56'815.3
2017-Sep-06 08:00N 48°30' W 124°44'816.7
2017-Sep-06 07:30N 48°27' W 124°33'816.7
2017-Sep-06 07:00N 48°24' W 124°21'917.7
2017-Sep-06 06:30N 48°21' W 124°09'917.7
2017-Sep-06 06:00N 48°18' W 123°56'918.3
2017-Sep-06 05:30N 48°16' W 123°43'917.8
2017-Sep-06 05:00N 48°16' W 123°29'815.5
2017-Sep-06 04:31N 48°23' W 123°25'611.6
2017-Sep-06 04:00N 48°24' W 123°16'510.6
2017-Sep-06 03:30N 48°28' W 123°13'5 9.9
2017-Sep-06 03:00N 48°33' W 123°13'510.3
2017-Sep-06 02:31N 48°38' W 123°15'612.6
2017-Sep-06 02:01N 48°44' W 123°10'815.9
2017-Sep-06 01:31N 48°49' W 123°01'918.3
2017-Sep-06 01:01N 48°56' W 123°11'917.2
2017-Sep-06 00:31N 49°02' W 123°20'510.5
2017-Sep-06 00:00N 49°07' W 123°17'4 8.4
2017-Sep-05 23:30N 49°07' W 123°11'4 7.9
2017-Sep-05 23:00N 49°07' W 123°05'4 8.0
2017-Sep-05 22:30N 49°09' W 122°60'3 6.7
2017-Sep-05 22:00N 49°11' W 122°55'0 0.2
2017-Sep-05 21:30N 49°11' W 122°55'0 0.0
2017-Sep-05 21:00N 49°11' W 122°55'0 0.0
2017-Sep-05 20:30N 49°11' W 122°55'0 0.0
2017-Sep-05 19:57N 49°11' W 122°55'0 0.0
2017-Sep-05 19:27N 49°11' W 122°55'0 0.0
2017-Sep-05 19:00N 49°11' W 122°55'0 0.0
2017-Sep-05 18:30N 49°11' W 122°55'0 0.0
2017-Sep-05 18:00N 49°11' W 122°55'0 0.0
2017-Sep-05 17:30N 49°11' W 122°55'0 0.0
2017-Sep-05 17:00N 49°11' W 122°55'0 0.0
2017-Sep-05 16:24N 49°11' W 122°55'0 0.0
2017-Sep-05 15:57N 49°11' W 122°55'0 0.0
2017-Sep-05 15:30N 49°11' W 122°55'0 0.0
2017-Sep-05 15:00N 49°11' W 122°55'0 0.0
2017-Sep-05 14:30N 49°11' W 122°55'0 0.0
2017-Sep-05 14:00N 49°11' W 122°55'0 0.0
2017-Sep-05 13:30N 49°11' W 122°55'0 0.0
2017-Sep-05 13:00N 49°11' W 122°55'0 0.1
2017-Sep-05 12:30N 49°11' W 122°55'1 1.4
2017-Sep-05 12:00N 49°10' W 122°55'4 8.4
2017-Sep-05 11:30N 49°09' W 123°01'611.6
2017-Sep-05 11:00N 49°07' W 123°09'611.1
2017-Sep-05 10:30N 49°06' W 123°18'4 7.8
2017-Sep-05 10:00N 49°03' W 123°19'611.7
2017-Sep-05 09:30N 48°59' W 123°12'917.4
2017-Sep-05 09:00N 48°53' W 123°03'714.6
2017-Sep-05 08:30N 48°45' W 123°04'917.2
2017-Sep-05 08:00N 48°41' W 123°15'714.5
2017-Sep-05 07:30N 48°34' W 123°12'510.3
2017-Sep-05 07:00N 48°29' W 123°10'5 9.7
2017-Sep-05 06:30N 48°24' W 123°12'713.4
2017-Sep-05 06:00N 48°22' W 123°22'510.0
2017-Sep-05 05:30N 48°18' W 123°26'510.0
2017-Sep-05 05:00N 48°13' W 123°30'714.1
2017-Sep-05 04:30N 48°14' W 123°41'814.6
2017-Sep-05 03:59N 48°14' W 123°52'714.4
2017-Sep-05 03:30N 48°15' W 124°02'815.1
2017-Sep-05 03:00N 48°19' W 124°12'815.2
2017-Sep-05 02:30N 48°22' W 124°23'815.3
2017-Sep-05 02:01N 48°25' W 124°33'714.8
2017-Sep-05 01:31N 48°28' W 124°43'714.2
2017-Sep-05 01:01N 48°28' W 124°54'714.6
2017-Sep-05 00:31N 48°28' W 125°05'816.0
2017-Sep-05 00:01N 48°29' W 125°17'815.8
2017-Sep-04 23:31N 48°29' W 125°29'815.3
2017-Sep-04 23:00N 48°30' W 125°40'815.2
2017-Sep-04 22:31N 48°31' W 125°52'815.8
2017-Sep-04 22:01N 48°32' W 126°03'815.9
2017-Sep-04 21:31N 48°32' W 126°15'815.8
2017-Sep-04 21:01N 48°33' W 126°27'816.1
2017-Sep-04 20:31N 48°34' W 126°39'816.8
2017-Sep-04 20:00N 48°34' W 126°52'816.5
2017-Sep-04 19:30N 48°35' W 127°05'816.6
2017-Sep-04 19:00N 48°36' W 127°17'816.2
2017-Sep-04 18:30N 48°38' W 127°29'816.3
2017-Sep-04 18:01N 48°39' W 127°41'816.0
2017-Sep-04 17:31N 48°40' W 127°53'815.5
2017-Sep-04 17:01N 48°41' W 128°05'611.1
2017-Sep-04 16:30N 48°41' W 128°13'2 3.5
2017-Sep-04 16:00N 48°40' W 128°15'510.3
2017-Sep-04 15:30N 48°40' W 128°23'714.7
2017-Sep-04 15:01N 48°41' W 128°34'816.2
2017-Sep-04 14:30N 48°41' W 128°46'816.3
2017-Sep-04 14:00N 48°42' W 128°59'816.3
2017-Sep-04 13:30N 48°42' W 129°11'816.1
2017-Sep-04 13:01N 48°43' W 129°23'815.7
2017-Sep-04 12:30N 48°44' W 129°35'815.6
2017-Sep-04 12:00N 48°44' W 129°47'815.7
2017-Sep-04 11:30N 48°45' W 129°59'815.7
2017-Sep-04 11:00N 48°46' W 130°11'815.8
2017-Sep-04 10:30N 48°47' W 130°22'2315.9
2017-Sep-04 09:03N 48°49' W 130°57'116.0
2017-Sep-04 08:59N 48°49' W 130°59'1115.8
2017-Sep-04 08:19N 48°50' W 131°15'1016.0
2017-Sep-04 07:43N 48°50' W 131°29'  

Dump ship's entire track history